sensor_id;sensor_type;location;lat;lon;timestamp;pressure;altitude;pressure_sealevel;temperature;humidity
74881;BME280;63427;49.654;6.596;2024-01-06T00:01:35;98552.68;;;7.97;41.65
74881;BME280;63427;49.654;6.596;2024-01-06T00:04:01;98553.55;;;7.73;41.29
74881;BME280;63427;49.654;6.596;2024-01-06T00:06:27;98553.24;;;7.99;41.40
74881;BME280;63427;49.654;6.596;2024-01-06T00:08:52;98555.67;;;8.01;41.22
74881;BME280;63427;49.654;6.596;2024-01-06T00:11:18;98556.95;;;7.94;41.38
74881;BME280;63427;49.654;6.596;2024-01-06T00:13:44;98553.37;;;8.08;41.19
74881;BME280;63427;49.654;6.596;2024-01-06T00:16:10;98562.23;;;7.93;41.53
74881;BME280;63427;49.654;6.596;2024-01-06T00:18:35;98556.69;;;7.91;41.68
74881;BME280;63427;49.654;6.596;2024-01-06T00:21:01;98559.54;;;8.06;41.17
74881;BME280;63427;49.654;6.596;2024-01-06T00:23:27;98559.28;;;8.03;41.48
74881;BME280;63427;49.654;6.596;2024-01-06T00:25:53;98563.36;;;8.25;40.87
74881;BME280;63427;49.654;6.596;2024-01-06T00:28:18;98557.65;;;7.98;41.28
74881;BME280;63427;49.654;6.596;2024-01-06T00:30:44;98559.38;;;7.60;41.70
74881;BME280;63427;49.654;6.596;2024-01-06T00:33:10;98557.73;;;7.95;41.39
74881;BME280;63427;49.654;6.596;2024-01-06T00:35:35;98558.38;;;8.10;41.22
74881;BME280;63427;49.654;6.596;2024-01-06T00:38:01;98558.18;;;7.89;41.38
74881;BME280;63427;49.654;6.596;2024-01-06T00:40:27;98562.34;;;8.34;40.79
74881;BME280;63427;49.654;6.596;2024-01-06T00:42:52;98561.52;;;8.12;41.25
74881;BME280;63427;49.654;6.596;2024-01-06T00:45:18;98562.29;;;8.32;40.99
74881;BME280;63427;49.654;6.596;2024-01-06T00:47:44;98563.32;;;8.36;40.85
74881;BME280;63427;49.654;6.596;2024-01-06T00:50:09;98567.48;;;8.14;41.00
74881;BME280;63427;49.654;6.596;2024-01-06T00:52:35;98563.96;;;8.20;40.71
74881;BME280;63427;49.654;6.596;2024-01-06T00:55:01;98561.99;;;8.49;40.84
74881;BME280;63427;49.654;6.596;2024-01-06T00:57:26;98564.00;;;8.55;40.70
74881;BME280;63427;49.654;6.596;2024-01-06T00:59:52;98560.12;;;8.64;40.69
74881;BME280;63427;49.654;6.596;2024-01-06T01:02:18;98563.51;;;8.56;40.68
74881;BME280;63427;49.654;6.596;2024-01-06T01:04:43;98561.32;;;8.41;40.63
74881;BME280;63427;49.654;6.596;2024-01-06T01:07:09;98561.30;;;8.31;40.48
74881;BME280;63427;49.654;6.596;2024-01-06T01:09:35;98562.83;;;8.64;40.96
74881;BME280;63427;49.654;6.596;2024-01-06T01:12:01;98563.91;;;8.42;40.84
74881;BME280;63427;49.654;6.596;2024-01-06T01:14:26;98565.47;;;8.44;40.67
74881;BME280;63427;49.654;6.596;2024-01-06T01:16:57;98570.27;;;8.18;40.98
74881;BME280;63427;49.654;6.596;2024-01-06T01:19:18;98570.12;;;8.65;40.53
74881;BME280;63427;49.654;6.596;2024-01-06T01:21:43;98568.45;;;8.40;40.53
74881;BME280;63427;49.654;6.596;2024-01-06T01:24:09;98569.39;;;8.42;40.56
74881;BME280;63427;49.654;6.596;2024-01-06T01:26:35;98571.29;;;8.35;40.64
74881;BME280;63427;49.654;6.596;2024-01-06T01:29:01;98573.19;;;8.53;40.53
74881;BME280;63427;49.654;6.596;2024-01-06T01:31:26;98577.54;;;8.82;40.47
74881;BME280;63427;49.654;6.596;2024-01-06T01:33:52;98577.99;;;8.66;40.28
74881;BME280;63427;49.654;6.596;2024-01-06T01:36:17;98580.01;;;8.62;40.70
74881;BME280;63427;49.654;6.596;2024-01-06T01:38:43;98588.12;;;8.53;41.13
74881;BME280;63427;49.654;6.596;2024-01-06T01:41:09;98591.65;;;8.36;40.74
74881;BME280;63427;49.654;6.596;2024-01-06T01:43:35;98592.34;;;8.90;40.69
74881;BME280;63427;49.654;6.596;2024-01-06T01:46:01;98602.10;;;8.34;40.87
74881;BME280;63427;49.654;6.596;2024-01-06T01:48:26;98600.25;;;8.95;40.87
74881;BME280;63427;49.654;6.596;2024-01-06T01:50:53;98607.38;;;8.85;40.95
74881;BME280;63427;49.654;6.596;2024-01-06T01:53:17;98609.87;;;8.89;41.16
74881;BME280;63427;49.654;6.596;2024-01-06T01:55:44;98615.09;;;8.61;41.17
74881;BME280;63427;49.654;6.596;2024-01-06T01:58:10;98617.70;;;8.59;40.90
74881;BME280;63427;49.654;6.596;2024-01-06T02:00:35;98620.64;;;8.75;40.82
74881;BME280;63427;49.654;6.596;2024-01-06T02:03:01;98619.61;;;8.74;41.07
74881;BME280;63427;49.654;6.596;2024-01-06T03:08:34;98668.87;;;8.70;41.93
74881;BME280;63427;49.654;6.596;2024-01-06T03:11:01;98667.35;;;8.58;42.18
74881;BME280;63427;49.654;6.596;2024-01-06T03:13:25;98667.20;;;8.67;41.95
74881;BME280;63427;49.654;6.596;2024-01-06T03:15:51;98670.06;;;8.69;42.30
74881;BME280;63427;49.654;6.596;2024-01-06T03:18:16;98667.64;;;8.77;42.32
74881;BME280;63427;49.654;6.596;2024-01-06T03:20:42;98670.65;;;8.53;42.27
74881;BME280;63427;49.654;6.596;2024-01-06T03:23:08;98675.04;;;8.34;42.67
74881;BME280;63427;49.654;6.596;2024-01-06T03:25:34;98673.53;;;8.45;42.32
74881;BME280;63427;49.654;6.596;2024-01-06T03:27:59;98673.55;;;8.48;42.10
74881;BME280;63427;49.654;6.596;2024-01-06T03:30:25;98672.91;;;8.59;42.89
74881;BME280;63427;49.654;6.596;2024-01-06T03:32:50;98671.53;;;8.59;42.28
74881;BME280;63427;49.654;6.596;2024-01-06T03:35:16;98673.83;;;8.20;42.89
74881;BME280;63427;49.654;6.596;2024-01-06T03:37:47;98671.37;;;8.44;43.25
74881;BME280;63427;49.654;6.596;2024-01-06T03:40:08;98667.81;;;8.46;43.22
74881;BME280;63427;49.654;6.596;2024-01-06T03:42:33;98666.96;;;8.96;42.64
74881;BME280;63427;49.654;6.596;2024-01-06T03:44:59;98669.68;;;8.33;42.82
74881;BME280;63427;49.654;6.596;2024-01-06T03:47:24;98668.16;;;8.61;42.99
74881;BME280;63427;49.654;6.596;2024-01-06T03:49:50;98672.00;;;7.73;44.22
74881;BME280;63427;49.654;6.596;2024-01-06T03:52:15;98671.91;;;8.41;43.64
74881;BME280;63427;49.654;6.596;2024-01-06T03:54:41;98672.20;;;8.59;43.30
74881;BME280;63427;49.654;6.596;2024-01-06T03:57:06;98673.84;;;8.40;43.15
74881;BME280;63427;49.654;6.596;2024-01-06T03:59:32;98678.09;;;8.39;43.23
74881;BME280;63427;49.654;6.596;2024-01-06T04:01:58;98680.80;;;8.59;43.47
74881;BME280;63427;49.654;6.596;2024-01-06T04:04:23;98682.59;;;8.74;43.11
74881;BME280;63427;49.654;6.596;2024-01-06T04:06:49;98679.75;;;8.28;43.31
74881;BME280;63427;49.654;6.596;2024-01-06T04:09:15;98681.93;;;8.37;43.05
74881;BME280;63427;49.654;6.596;2024-01-06T04:11:40;98677.13;;;8.75;42.69
74881;BME280;63427;49.654;6.596;2024-01-06T04:14:05;98680.39;;;8.02;43.28
74881;BME280;63427;49.654;6.596;2024-01-06T04:16:31;98678.72;;;8.77;43.04
74881;BME280;63427;49.654;6.596;2024-01-06T04:18:56;98682.35;;;8.95;42.63
74881;BME280;63427;49.654;6.596;2024-01-06T04:21:22;98682.96;;;8.71;42.69
74881;BME280;63427;49.654;6.596;2024-01-06T04:23:48;98682.34;;;8.23;43.22
74881;BME280;63427;49.654;6.596;2024-01-06T04:26:13;98683.34;;;8.59;43.03
74881;BME280;63427;49.654;6.596;2024-01-06T04:28:39;98679.70;;;8.53;42.78
74881;BME280;63427;49.654;6.596;2024-01-06T04:31:05;98676.48;;;8.49;42.85
74881;BME280;63427;49.654;6.596;2024-01-06T04:33:31;98681.22;;;8.49;42.79
74881;BME280;63427;49.654;6.596;2024-01-06T04:35:56;98680.36;;;8.72;42.92
74881;BME280;63427;49.654;6.596;2024-01-06T04:38:22;98676.97;;;8.87;42.63
74881;BME280;63427;49.654;6.596;2024-01-06T04:40:47;98681.24;;;8.41;42.93
74881;BME280;63427;49.654;6.596;2024-01-06T04:43:13;98680.58;;;8.49;42.94
74881;BME280;63427;49.654;6.596;2024-01-06T04:45:38;98677.41;;;8.83;42.63
74881;BME280;63427;49.654;6.596;2024-01-06T04:48:05;98679.17;;;8.53;42.85
74881;BME280;63427;49.654;6.596;2024-01-06T04:50:29;98675.25;;;8.51;42.55
74881;BME280;63427;49.654;6.596;2024-01-06T04:52:55;98674.55;;;8.80;42.38
74881;BME280;63427;49.654;6.596;2024-01-06T04:55:21;98671.20;;;8.76;42.51
74881;BME280;63427;49.654;6.596;2024-01-06T04:57:48;98670.89;;;8.70;42.63
74881;BME280;63427;49.654;6.596;2024-01-06T05:00:13;98674.69;;;8.59;42.80
74881;BME280;63427;49.654;6.596;2024-01-06T05:02:38;98677.79;;;8.84;42.48
74881;BME280;63427;49.654;6.596;2024-01-06T05:05:04;98682.42;;;9.00;42.24
74881;BME280;63427;49.654;6.596;2024-01-06T05:07:29;98684.21;;;9.10;41.97
74881;BME280;63427;49.654;6.596;2024-01-06T05:09:55;98686.73;;;8.90;42.31
74881;BME280;63427;49.654;6.596;2024-01-06T05:12:20;98687.21;;;8.83;42.38
74881;BME280;63427;49.654;6.596;2024-01-06T05:14:46;98691.35;;;8.86;42.26
74881;BME280;63427;49.654;6.596;2024-01-06T05:17:12;98691.76;;;8.80;42.55
74881;BME280;63427;49.654;6.596;2024-01-06T05:19:37;98693.50;;;8.96;42.24
74881;BME280;63427;49.654;6.596;2024-01-06T05:22:03;98694.84;;;8.96;42.26
74881;BME280;63427;49.654;6.596;2024-01-06T05:24:29;98697.15;;;8.66;42.61
74881;BME280;63427;49.654;6.596;2024-01-06T05:26:54;98698.60;;;8.78;42.36
74881;BME280;63427;49.654;6.596;2024-01-06T05:29:20;98698.68;;;8.84;42.38
74881;BME280;63427;49.654;6.596;2024-01-06T05:31:48;98698.62;;;8.93;42.13
74881;BME280;63427;49.654;6.596;2024-01-06T05:34:11;98698.37;;;9.14;42.33
74881;BME280;63427;49.654;6.596;2024-01-06T05:36:37;98701.43;;;8.65;42.55
74881;BME280;63427;49.654;6.596;2024-01-06T05:39:03;98698.62;;;8.73;42.35
74881;BME280;63427;49.654;6.596;2024-01-06T05:41:28;98700.28;;;9.03;42.49
74881;BME280;63427;49.654;6.596;2024-01-06T05:43:54;98702.28;;;8.66;42.74
74881;BME280;63427;49.654;6.596;2024-01-06T05:46:21;98703.97;;;8.80;42.53
74881;BME280;63427;49.654;6.596;2024-01-06T05:48:45;98710.14;;;8.86;42.53
74881;BME280;63427;49.654;6.596;2024-01-06T05:51:11;98712.27;;;8.88;42.37
74881;BME280;63427;49.654;6.596;2024-01-06T05:53:37;98716.83;;;8.96;41.66
74881;BME280;63427;49.654;6.596;2024-01-06T05:56:02;98716.60;;;8.90;42.03
74881;BME280;63427;49.654;6.596;2024-01-06T05:58:28;98721.23;;;9.15;42.05
74881;BME280;63427;49.654;6.596;2024-01-06T06:00:53;98721.59;;;9.27;41.80
74881;BME280;63427;49.654;6.596;2024-01-06T06:03:19;98723.10;;;9.27;41.51
74881;BME280;63427;49.654;6.596;2024-01-06T06:05:45;98722.61;;;9.18;41.71
74881;BME280;63427;49.654;6.596;2024-01-06T06:08:10;98724.69;;;9.03;41.44
74881;BME280;63427;49.654;6.596;2024-01-06T06:10:36;98724.41;;;9.26;41.72
74881;BME280;63427;49.654;6.596;2024-01-06T06:13:02;98729.84;;;9.44;41.39
74881;BME280;63427;49.654;6.596;2024-01-06T06:15:27;98731.10;;;9.16;41.95
74881;BME280;63427;49.654;6.596;2024-01-06T06:17:53;98730.83;;;9.39;41.83
74881;BME280;63427;49.654;6.596;2024-01-06T06:20:18;98735.58;;;9.10;41.94
74881;BME280;63427;49.654;6.596;2024-01-06T06:22:44;98738.68;;;9.17;41.85
74881;BME280;63427;49.654;6.596;2024-01-06T06:25:10;98741.07;;;9.19;41.98
74881;BME280;63427;49.654;6.596;2024-01-06T06:27:36;98742.32;;;8.99;41.86
74881;BME280;63427;49.654;6.596;2024-01-06T06:30:02;98744.21;;;9.17;42.03
74881;BME280;63427;49.654;6.596;2024-01-06T06:32:27;98749.87;;;8.98;42.28
74881;BME280;63427;49.654;6.596;2024-01-06T06:34:52;98753.53;;;8.61;42.11
74881;BME280;63427;49.654;6.596;2024-01-06T06:37:18;98761.03;;;9.14;42.59
74881;BME280;63427;49.654;6.596;2024-01-06T06:39:44;98762.71;;;9.10;42.21
74881;BME280;63427;49.654;6.596;2024-01-06T06:42:09;98769.93;;;9.31;41.92
74881;BME280;63427;49.654;6.596;2024-01-06T06:44:35;98770.56;;;9.32;41.87
74881;BME280;63427;49.654;6.596;2024-01-06T06:47:01;98779.26;;;9.09;41.82
74881;BME280;63427;49.654;6.596;2024-01-06T06:49:26;98779.65;;;9.36;41.34
74881;BME280;63427;49.654;6.596;2024-01-06T06:51:52;98780.72;;;9.17;41.70
74881;BME280;63427;49.654;6.596;2024-01-06T06:54:18;98779.27;;;9.40;41.71
74881;BME280;63427;49.654;6.596;2024-01-06T06:56:43;98784.77;;;8.84;42.32
74881;BME280;63427;49.654;6.596;2024-01-06T06:59:16;98787.92;;;9.26;41.73
74881;BME280;63427;49.654;6.596;2024-01-06T07:01:35;98792.79;;;9.14;41.72
74881;BME280;63427;49.654;6.596;2024-01-06T07:04:01;98798.73;;;9.23;41.68
74881;BME280;63427;49.654;6.596;2024-01-06T07:06:26;98805.14;;;8.72;42.56
74881;BME280;63427;49.654;6.596;2024-01-06T07:08:52;98809.20;;;8.75;42.66
74881;BME280;63427;49.654;6.596;2024-01-06T07:11:18;98811.63;;;8.85;42.66
74881;BME280;63427;49.654;6.596;2024-01-06T07:13:43;98816.20;;;8.88;42.44
74881;BME280;63427;49.654;6.596;2024-01-06T07:16:10;98817.25;;;8.83;42.46
74881;BME280;63427;49.654;6.596;2024-01-06T07:18:34;98817.61;;;9.01;42.23
74881;BME280;63427;49.654;6.596;2024-01-06T07:21:01;98819.40;;;8.99;42.00
74881;BME280;63427;49.654;6.596;2024-01-06T07:23:26;98819.18;;;8.96;42.04
74881;BME280;63427;49.654;6.596;2024-01-06T07:25:52;98820.28;;;8.97;42.12
74881;BME280;63427;49.654;6.596;2024-01-06T07:28:17;98823.10;;;9.00;42.32
74881;BME280;63427;49.654;6.596;2024-01-06T07:30:43;98825.05;;;8.53;42.67
74881;BME280;63427;49.654;6.596;2024-01-06T07:33:09;98830.29;;;9.26;42.18
74881;BME280;63427;49.654;6.596;2024-01-06T07:35:34;98835.04;;;8.96;42.13
74881;BME280;63427;49.654;6.596;2024-01-06T07:38:01;98838.51;;;9.04;41.98
74881;BME280;63427;49.654;6.596;2024-01-06T07:40:26;98837.60;;;9.09;42.02
74881;BME280;63427;49.654;6.596;2024-01-06T07:42:51;98836.54;;;9.05;41.90
74881;BME280;63427;49.654;6.596;2024-01-06T07:45:17;98837.37;;;9.12;41.56
74881;BME280;63427;49.654;6.596;2024-01-06T07:47:43;98838.03;;;9.52;41.41
74881;BME280;63427;49.654;6.596;2024-01-06T07:50:09;98841.32;;;8.96;41.22
74881;BME280;63427;49.654;6.596;2024-01-06T07:52:34;98841.47;;;9.43;41.25
74881;BME280;63427;49.654;6.596;2024-01-06T07:55:01;98848.91;;;9.76;40.71
74881;BME280;63427;49.654;6.596;2024-01-06T07:57:25;98852.29;;;9.66;40.97
74881;BME280;63427;49.654;6.596;2024-01-06T07:59:51;98857.66;;;9.54;41.13
74881;BME280;63427;49.654;6.596;2024-01-06T08:02:18;98859.34;;;9.24;41.20
74881;BME280;63427;49.654;6.596;2024-01-06T08:04:42;98864.03;;;8.99;41.23
74881;BME280;63427;49.654;6.596;2024-01-06T08:07:08;98870.26;;;9.25;41.21
74881;BME280;63427;49.654;6.596;2024-01-06T08:09:34;98874.46;;;9.42;41.67
74881;BME280;63427;49.654;6.596;2024-01-06T08:12:00;98875.40;;;9.31;41.68
74881;BME280;63427;49.654;6.596;2024-01-06T08:14:25;98875.80;;;9.43;41.61
74881;BME280;63427;49.654;6.596;2024-01-06T08:16:51;98878.14;;;9.30;41.44
74881;BME280;63427;49.654;6.596;2024-01-06T08:19:16;98883.14;;;9.24;41.71
74881;BME280;63427;49.654;6.596;2024-01-06T08:21:53;98887.59;;;9.55;41.43
74881;BME280;63427;49.654;6.596;2024-01-06T08:24:08;98886.53;;;9.02;41.62
74881;BME280;63427;49.654;6.596;2024-01-06T08:26:33;98889.34;;;9.33;41.50
74881;BME280;63427;49.654;6.596;2024-01-06T08:28:59;98889.98;;;9.35;41.39
74881;BME280;63427;49.654;6.596;2024-01-06T08:31:25;98891.38;;;9.16;41.80
74881;BME280;63427;49.654;6.596;2024-01-06T08:33:50;98896.93;;;8.95;42.10
74881;BME280;63427;49.654;6.596;2024-01-06T08:36:16;98899.30;;;9.12;41.93
74881;BME280;63427;49.654;6.596;2024-01-06T08:38:42;98901.91;;;9.09;42.30
74881;BME280;63427;49.654;6.596;2024-01-06T08:41:08;98902.39;;;8.99;42.03
74881;BME280;63427;49.654;6.596;2024-01-06T08:43:33;98905.41;;;9.23;41.50
74881;BME280;63427;49.654;6.596;2024-01-06T08:45:59;98909.36;;;9.32;41.43
74881;BME280;63427;49.654;6.596;2024-01-06T08:48:24;98913.68;;;9.23;41.61
74881;BME280;63427;49.654;6.596;2024-01-06T08:50:51;98916.24;;;9.52;41.47
74881;BME280;63427;49.654;6.596;2024-01-06T08:53:15;98920.08;;;9.35;41.56
74881;BME280;63427;49.654;6.596;2024-01-06T08:55:41;98921.41;;;9.55;41.48
74881;BME280;63427;49.654;6.596;2024-01-06T08:58:07;98922.99;;;9.33;41.74
74881;BME280;63427;49.654;6.596;2024-01-06T09:00:32;98928.44;;;9.17;42.31
74881;BME280;63427;49.654;6.596;2024-01-06T09:02:58;98924.20;;;9.08;41.97
74881;BME280;63427;49.654;6.596;2024-01-06T09:05:24;98924.07;;;9.01;42.03
74881;BME280;63427;49.654;6.596;2024-01-06T09:07:50;98924.32;;;9.13;42.30
74881;BME280;63427;49.654;6.596;2024-01-06T09:10:16;98929.23;;;8.93;42.29
74881;BME280;63427;49.654;6.596;2024-01-06T09:12:41;98928.06;;;9.34;41.80
74881;BME280;63427;49.654;6.596;2024-01-06T09:15:07;98934.87;;;9.80;41.48
74881;BME280;63427;49.654;6.596;2024-01-06T09:17:32;98933.86;;;9.47;40.95
74881;BME280;63427;49.654;6.596;2024-01-06T09:19:58;98937.14;;;9.25;41.47
74881;BME280;63427;49.654;6.596;2024-01-06T09:22:23;98938.23;;;9.72;40.84
74881;BME280;63427;49.654;6.596;2024-01-06T09:24:49;98940.14;;;9.52;40.65
74881;BME280;63427;49.654;6.596;2024-01-06T09:27:14;98942.32;;;9.38;41.81
74881;BME280;63427;49.654;6.596;2024-01-06T09:29:40;98948.51;;;9.47;41.42
74881;BME280;63427;49.654;6.596;2024-01-06T09:32:06;98953.51;;;9.68;40.89
74881;BME280;63427;49.654;6.596;2024-01-06T09:34:31;98957.77;;;10.00;40.29
74881;BME280;63427;49.654;6.596;2024-01-06T09:36:57;98959.32;;;8.63;41.95
74881;BME280;63427;49.654;6.596;2024-01-06T09:39:22;98954.66;;;9.43;40.88
74881;BME280;63427;49.654;6.596;2024-01-06T09:41:48;98954.82;;;10.10;40.37
74881;BME280;63427;49.654;6.596;2024-01-06T09:44:13;98955.79;;;9.18;40.93
74881;BME280;63427;49.654;6.596;2024-01-06T09:46:39;98959.01;;;9.39;40.56
74881;BME280;63427;49.654;6.596;2024-01-06T09:49:05;98959.19;;;9.65;40.74
74881;BME280;63427;49.654;6.596;2024-01-06T09:51:31;98962.74;;;10.04;40.13
74881;BME280;63427;49.654;6.596;2024-01-06T09:53:57;98961.81;;;10.09;40.08
74881;BME280;63427;49.654;6.596;2024-01-06T09:56:24;98964.49;;;10.04;39.85
74881;BME280;63427;49.654;6.596;2024-01-06T09:58:47;98964.24;;;9.71;40.42
74881;BME280;63427;49.654;6.596;2024-01-06T10:01:14;98963.05;;;10.41;39.38
74881;BME280;63427;49.654;6.596;2024-01-06T10:03:41;98971.57;;;9.80;39.53
74881;BME280;63427;49.654;6.596;2024-01-06T10:06:05;98970.87;;;10.20;39.50
74881;BME280;63427;49.654;6.596;2024-01-06T10:08:30;98967.10;;;10.42;39.36
74881;BME280;63427;49.654;6.596;2024-01-06T10:10:55;98968.94;;;10.17;39.51
74881;BME280;63427;49.654;6.596;2024-01-06T10:13:21;98969.32;;;10.43;38.57
74881;BME280;63427;49.654;6.596;2024-01-06T10:15:47;98969.20;;;10.63;39.01
74881;BME280;63427;49.654;6.596;2024-01-06T10:18:13;98967.02;;;10.37;39.25
74881;BME280;63427;49.654;6.596;2024-01-06T10:20:40;98971.97;;;10.41;38.20
74881;BME280;63427;49.654;6.596;2024-01-06T10:23:05;98969.16;;;10.36;38.82
74881;BME280;63427;49.654;6.596;2024-01-06T10:25:29;98969.86;;;10.16;39.06
74881;BME280;63427;49.654;6.596;2024-01-06T10:27:55;98966.99;;;10.44;38.89
74881;BME280;63427;49.654;6.596;2024-01-06T10:30:21;98965.23;;;10.57;38.54
74881;BME280;63427;49.654;6.596;2024-01-06T10:32:46;98960.59;;;10.11;39.15
74881;BME280;63427;49.654;6.596;2024-01-06T10:35:11;98962.94;;;10.26;38.98
74881;BME280;63427;49.654;6.596;2024-01-06T10:37:37;98963.42;;;10.48;39.01
74881;BME280;63427;49.654;6.596;2024-01-06T10:40:08;98959.47;;;10.37;39.11
74881;BME280;63427;49.654;6.596;2024-01-06T10:42:30;98961.36;;;10.70;38.14
74881;BME280;63427;49.654;6.596;2024-01-06T10:44:54;98965.67;;;10.54;38.75
74881;BME280;63427;49.654;6.596;2024-01-06T10:47:19;98966.73;;;10.19;38.61
74881;BME280;63427;49.654;6.596;2024-01-06T10:49:45;98964.02;;;10.25;38.39
74881;BME280;63427;49.654;6.596;2024-01-06T10:52:11;98965.00;;;10.33;38.41
74881;BME280;63427;49.654;6.596;2024-01-06T10:54:37;98964.14;;;10.43;38.61
74881;BME280;63427;49.654;6.596;2024-01-06T10:57:02;98965.65;;;10.31;38.64
74881;BME280;63427;49.654;6.596;2024-01-06T10:59:28;98965.50;;;10.28;38.07
74881;BME280;63427;49.654;6.596;2024-01-06T11:01:54;98966.44;;;10.38;38.26
74881;BME280;63427;49.654;6.596;2024-01-06T11:04:19;98968.03;;;10.72;38.35
74881;BME280;63427;49.654;6.596;2024-01-06T11:06:44;98970.44;;;10.62;38.06
74881;BME280;63427;49.654;6.596;2024-01-06T11:09:14;98968.75;;;10.78;38.54
74881;BME280;63427;49.654;6.596;2024-01-06T11:11:39;98966.76;;;9.42;37.78
74881;BME280;63427;49.654;6.596;2024-01-06T11:14:19;98967.39;;;11.27;36.37
74881;BME280;63427;49.654;6.596;2024-01-06T11:16:35;98968.95;;;11.27;36.45
74881;BME280;63427;49.654;6.596;2024-01-06T11:18:52;98969.77;;;11.11;36.52
74881;BME280;63427;49.654;6.596;2024-01-06T11:21:19;98970.76;;;10.84;36.72
74881;BME280;63427;49.654;6.596;2024-01-06T11:26:17;98969.68;;;11.04;37.12
74881;BME280;63427;49.654;6.596;2024-01-06T11:28:43;98966.85;;;10.96;37.04
74881;BME280;63427;49.654;6.596;2024-01-06T11:31:08;98966.90;;;11.01;36.91
74881;BME280;63427;49.654;6.596;2024-01-06T11:33:31;98962.96;;;11.02;36.58
74881;BME280;63427;49.654;6.596;2024-01-06T11:35:56;98964.66;;;11.14;36.31
74881;BME280;63427;49.654;6.596;2024-01-06T11:38:21;98964.02;;;10.95;37.13
74881;BME280;63427;49.654;6.596;2024-01-06T11:40:42;98965.33;;;10.95;37.09
74881;BME280;63427;49.654;6.596;2024-01-06T11:43:09;98964.14;;;11.02;36.95
74881;BME280;63427;49.654;6.596;2024-01-06T11:45:34;98966.72;;;11.17;36.14
74881;BME280;63427;49.654;6.596;2024-01-06T11:48:05;98972.95;;;11.03;36.21
74881;BME280;63427;49.654;6.596;2024-01-06T11:50:24;98973.09;;;11.12;36.71
74881;BME280;63427;49.654;6.596;2024-01-06T11:52:55;98974.10;;;10.93;36.98
74881;BME280;63427;49.654;6.596;2024-01-06T11:55:21;98970.08;;;10.91;36.34
74881;BME280;63427;49.654;6.596;2024-01-06T11:57:41;98967.92;;;10.90;36.62
74881;BME280;63427;49.654;6.596;2024-01-06T12:00:07;98966.98;;;11.00;36.31
74881;BME280;63427;49.654;6.596;2024-01-06T12:02:36;98967.89;;;10.98;35.95
74881;BME280;63427;49.654;6.596;2024-01-06T12:05:02;98964.34;;;10.89;36.13
74881;BME280;63427;49.654;6.596;2024-01-06T12:07:23;98963.99;;;11.04;36.51
74881;BME280;63427;49.654;6.596;2024-01-06T12:10:01;98963.87;;;10.99;35.95
74881;BME280;63427;49.654;6.596;2024-01-06T12:12:16;98958.54;;;11.05;36.25
74881;BME280;63427;49.654;6.596;2024-01-06T12:14:44;98956.70;;;10.88;36.28
74881;BME280;63427;49.654;6.596;2024-01-06T12:17:10;98958.30;;;11.02;36.44
74881;BME280;63427;49.654;6.596;2024-01-06T12:19:32;98955.32;;;11.10;36.52
74881;BME280;63427;49.654;6.596;2024-01-06T12:21:57;98954.61;;;11.10;36.18
74881;BME280;63427;49.654;6.596;2024-01-06T12:24:22;98955.45;;;10.82;36.37
74881;BME280;63427;49.654;6.596;2024-01-06T12:26:52;98954.58;;;11.09;36.38
74881;BME280;63427;49.654;6.596;2024-01-06T12:29:13;98952.95;;;11.12;36.10
74881;BME280;63427;49.654;6.596;2024-01-06T12:31:39;98954.04;;;11.20;36.42
74881;BME280;63427;49.654;6.596;2024-01-06T12:34:05;98953.98;;;11.01;36.26
74881;BME280;63427;49.654;6.596;2024-01-06T12:36:29;98953.79;;;11.14;35.38
74881;BME280;63427;49.654;6.596;2024-01-06T12:38:55;98950.36;;;11.12;36.06
74881;BME280;63427;49.654;6.596;2024-01-06T12:41:21;98952.51;;;11.16;35.90
74881;BME280;63427;49.654;6.596;2024-01-06T12:43:46;98953.92;;;10.90;36.21
74881;BME280;63427;49.654;6.596;2024-01-06T12:46:12;98954.60;;;11.46;36.08
74881;BME280;63427;49.654;6.596;2024-01-06T12:48:42;98957.19;;;11.28;35.52
74881;BME280;63427;49.654;6.596;2024-01-06T12:51:03;98958.88;;;10.70;36.10
74881;BME280;63427;49.654;6.596;2024-01-06T12:53:28;98960.21;;;11.04;35.59
74881;BME280;63427;49.654;6.596;2024-01-06T12:55:54;98961.78;;;11.16;36.04
74881;BME280;63427;49.654;6.596;2024-01-06T12:58:19;98962.45;;;10.87;35.80
74881;BME280;63427;49.654;6.596;2024-01-06T13:00:45;98961.18;;;10.82;35.84
74881;BME280;63427;49.654;6.596;2024-01-06T13:03:24;98960.71;;;11.14;35.53
74881;BME280;63427;49.654;6.596;2024-01-06T13:05:41;98958.71;;;11.45;35.50
74881;BME280;63427;49.654;6.596;2024-01-06T13:08:06;98960.03;;;11.02;35.25
74881;BME280;63427;49.654;6.596;2024-01-06T13:10:28;98963.32;;;11.23;34.77
74881;BME280;63427;49.654;6.596;2024-01-06T13:12:52;98968.21;;;10.81;35.15
74881;BME280;63427;49.654;6.596;2024-01-06T13:15:18;98970.11;;;10.63;35.07
74881;BME280;63427;49.654;6.596;2024-01-06T13:17:43;98974.06;;;10.84;35.28
74881;BME280;63427;49.654;6.596;2024-01-06T13:20:09;98980.93;;;10.21;35.96
74881;BME280;63427;49.654;6.596;2024-01-06T13:22:35;98988.02;;;10.38;35.96
74881;BME280;63427;49.654;6.596;2024-01-06T13:25:01;98992.97;;;10.10;36.08
74881;BME280;63427;49.654;6.596;2024-01-06T13:29:52;98992.84;;;10.11;36.34
74881;BME280;63427;49.654;6.596;2024-01-06T13:32:19;98997.34;;;10.27;36.22
74881;BME280;63427;49.654;6.596;2024-01-06T13:34:42;98996.27;;;10.00;36.04
74881;BME280;63427;49.654;6.596;2024-01-06T13:37:09;99000.88;;;10.17;36.01
74881;BME280;63427;49.654;6.596;2024-01-06T13:39:36;99003.32;;;10.03;36.06
74881;BME280;63427;49.654;6.596;2024-01-06T13:41:59;99005.09;;;10.18;36.42
74881;BME280;63427;49.654;6.596;2024-01-06T13:44:25;99002.68;;;10.15;35.92
74881;BME280;63427;49.654;6.596;2024-01-06T13:46:55;99003.98;;;10.39;35.90
74881;BME280;63427;49.654;6.596;2024-01-06T13:49:17;99006.90;;;10.07;36.24
74881;BME280;63427;49.654;6.596;2024-01-06T13:51:42;99007.67;;;9.95;36.18
74881;BME280;63427;49.654;6.596;2024-01-06T13:54:12;99009.80;;;9.84;36.55
74881;BME280;63427;49.654;6.596;2024-01-06T13:56:32;99013.05;;;9.85;36.45
74881;BME280;63427;49.654;6.596;2024-01-06T13:59:02;99019.46;;;9.52;37.01
74881;BME280;63427;49.654;6.596;2024-01-06T14:01:23;99027.69;;;9.63;37.17
74881;BME280;63427;49.654;6.596;2024-01-06T14:03:48;99033.69;;;9.65;36.90
74881;BME280;63427;49.654;6.596;2024-01-06T14:06:14;99035.54;;;9.44;36.84